Time;durP1;ratioP1;P1;durP2;ratioP2;P2;SDS_P1;SDS_P2;PMS_P1;PMS_P2;Temp;Humidity;BMP_temperature;BMP_pressure;BME280_temperature;BME280_humidity;BME280_pressure;Samples;Min_cycle;Max_cycle;Signal;HPM_P1;HPM_P2
2022/12/05 00:00:17;;;;;;;0.00;0.00;;;;;;;15.33;55.65;102258.56;2060526;28;20054;-74
2022/12/05 00:01:23;;;;;;;0.00;0.00;;;;;;;15.33;55.93;102264.00;2066451;28;20047;-74
2022/12/05 00:02:25;;;;;;;0.00;0.00;;;;;;;15.32;55.72;102253.47;2073997;28;20057;-74
2022/12/05 00:03:27;;;;;;;0.00;0.00;;;;;;;15.33;55.95;102258.56;2068605;28;20046;-75
2022/12/05 00:04:30;;;;;;;0.00;0.00;;;;;;;15.33;55.92;102252.31;2068436;28;20046;-74
2022/12/05 00:05:33;;;;;;;0.00;0.00;;;;;;;15.32;55.87;102256.19;2063082;28;20513;-74
2022/12/05 00:06:37;;;;;;;0.00;0.00;;;;;;;15.33;55.78;102252.31;2062448;28;20058;-74
2022/12/05 00:07:39;;;;;;;0.00;0.00;;;;;;;15.31;55.66;102255.38;2079442;28;20061;-74
2022/12/05 00:08:42;;;;;;;0.00;0.00;;;;;;;15.32;56.11;102250.75;2078246;28;20217;-74
2022/12/05 00:09:45;;;;;;;0.00;0.00;;;;;;;15.32;56.02;102251.50;2070379;28;20068;-74
2022/12/05 00:10:47;;;;;;;0.00;0.00;;;;;;;15.31;55.84;102260.81;2069325;28;20054;-74
2022/12/05 00:11:51;;;;;;;0.00;0.00;;;;;;;15.32;55.92;102256.19;2071246;28;20053;-74
2022/12/05 00:12:52;;;;;;;0.00;0.00;;;;;;;15.32;56.00;102262.41;2079170;28;20057;-74
2022/12/05 00:13:57;;;;;;;0.00;0.00;;;;;;;15.32;56.10;102251.50;2079330;28;20061;-74
2022/12/05 00:15:00;;;;;;;0.00;0.00;;;;;;;15.30;55.88;102253.78;2079406;28;20061;-74
2022/12/05 00:16:06;;;;;;;0.00;0.00;;;;;;;15.31;55.67;102260.03;2070956;28;20092;-74
2022/12/05 00:17:09;;;;;;;0.00;0.00;;;;;;;15.30;55.74;102261.16;2064351;28;20046;-74
2022/12/05 00:18:11;;;;;;;0.00;0.00;;;;;;;15.30;55.89;102253.78;2071536;28;20060;-73
2022/12/05 00:19:15;;;;;;;0.00;0.00;;;;;;;15.31;55.99;102257.28;2070108;28;20693;-74
2022/12/05 00:20:17;;;;;;;0.00;0.00;;;;;;;15.29;55.90;102257.63;2069013;28;20069;-74
2022/12/05 00:21:21;;;;;;;0.00;0.00;;;;;;;15.28;56.08;102249.81;2071230;28;20453;-74
2022/12/05 00:22:23;;;;;;;0.00;0.00;;;;;;;15.30;55.93;102255.72;2071133;28;20049;-74
2022/12/05 00:23:26;;;;;;;0.00;0.00;;;;;;;15.30;55.93;102253.78;2079192;28;20408;-74
2022/12/05 00:24:29;;;;;;;0.00;0.00;;;;;;;15.29;55.79;102254.91;2079412;28;20057;-74
2022/12/05 00:25:30;;;;;;;0.00;0.00;;;;;;;15.30;55.74;102253.78;2071358;28;20060;-74
2022/12/05 00:26:33;;;;;;;0.00;0.00;;;;;;;15.30;56.04;102248.31;2070716;28;20057;-74
2022/12/05 00:27:37;;;;;;;0.00;0.00;;;;;;;15.31;55.95;102244.50;2071085;28;20124;-74
2022/12/05 00:28:40;;;;;;;0.00;0.00;;;;;;;15.29;55.57;102241.31;2078692;28;20072;-74
2022/12/05 00:29:42;;;;;;;0.00;0.00;;;;;;;15.30;56.08;102248.31;2071970;28;20061;-74
2022/12/05 00:30:44;;;;;;;0.00;0.00;;;;;;;15.30;55.86;102248.31;2070615;28;20093;-74
2022/12/05 00:31:47;;;;;;;0.00;0.00;;;;;;;15.30;55.62;102248.31;2071272;28;20072;-74
2022/12/05 00:32:49;;;;;;;0.00;0.00;;;;;;;15.30;55.84;102242.88;2071191;28;20084;-75
2022/12/05 00:33:52;;;;;;;0.00;0.00;;;;;;;15.30;55.82;102240.16;2071204;28;20057;-73
2022/12/05 00:34:54;;;;;;;0.00;0.00;;;;;;;15.31;55.95;102240.97;2076320;28;20050;-74
2022/12/05 00:36:01;;;;;;;0.00;0.00;;;;;;;15.29;55.98;102241.31;2078980;28;20555;-74
2022/12/05 00:37:03;;;;;;;0.00;0.00;;;;;;;15.30;55.94;102242.88;2078688;28;20070;-74
2022/12/05 00:38:06;;;;;;;0.00;0.00;;;;;;;15.30;56.04;102248.31;2078197;28;20428;-74
2022/12/05 00:39:11;;;;;;;0.00;0.00;;;;;;;15.31;55.64;102249.13;2068773;28;20046;-74
2022/12/05 00:40:13;;;;;;;0.00;0.00;;;;;;;15.29;55.98;102241.31;2070994;28;20081;-73
2022/12/05 00:41:18;;;;;;;0.00;0.00;;;;;;;15.30;55.99;102247.56;2063024;28;20058;-74
2022/12/05 00:42:21;;;;;;;0.00;0.00;;;;;;;15.28;55.65;102242.44;2052102;28;20094;-74
2022/12/05 00:43:24;;;;;;;0.00;0.00;;;;;;;15.29;55.79;102245.94;2060564;28;20458;-74
2022/12/05 00:44:26;;;;;;;0.00;0.00;;;;;;;15.28;55.86;102245.19;2068960;28;20053;-73
2022/12/05 00:45:28;;;;;;;0.00;0.00;;;;;;;15.26;55.67;102246.63;2070653;28;20058;-74
2022/12/05 00:46:33;;;;;;;0.00;0.00;;;;;;;15.29;56.05;102244.03;2078737;28;20060;-73
2022/12/05 00:47:35;;;;;;;0.00;0.00;;;;;;;15.28;56.02;102244.38;2070606;28;20146;-73
2022/12/05 00:48:38;;;;;;;0.00;0.00;;;;;;;15.29;55.98;102246.75;2071601;28;20593;-74
2022/12/05 00:49:40;;;;;;;0.00;0.00;;;;;;;15.29;56.08;102245.94;2076119;28;20073;-73
2022/12/05 00:50:43;;;;;;;0.00;0.00;;;;;;;15.28;55.86;102247.09;2079381;28;20151;-73
2022/12/05 00:51:45;;;;;;;0.00;0.00;;;;;;;15.28;55.67;102247.91;2076995;28;20057;-74
2022/12/05 00:52:47;;;;;;;0.00;0.00;;;;;;;15.27;55.66;102249.00;2068759;28;20065;-74
2022/12/05 00:53:49;;;;;;;0.00;0.00;;;;;;;15.28;55.92;102253.34;2071530;28;20820;-74
2022/12/05 00:54:52;;;;;;;0.00;0.00;;;;;;;15.28;55.91;102250.63;2076233;28;20057;-74
2022/12/05 00:55:54;;;;;;;0.00;0.00;;;;;;;15.25;55.73;102234.97;2062139;28;20050;-74
2022/12/05 00:56:56;;;;;;;0.00;0.00;;;;;;;15.28;56.00;102244.38;2071239;28;20876;-74
2022/12/05 00:57:58;;;;;;;0.00;0.00;;;;;;;15.28;55.86;102244.38;2077567;28;20088;-75
2022/12/05 00:59:04;;;;;;;0.00;0.00;;;;;;;15.29;55.98;102241.31;2070278;28;20061;-74
2022/12/05 01:00:07;;;;;;;0.00;0.00;;;;;;;15.27;55.87;102240.84;2062780;28;20566;-74
2022/12/05 01:01:12;;;;;;;0.00;0.00;;;;;;;15.27;55.72;102242.78;2067828;28;20054;-74
2022/12/05 01:02:16;;;;;;;0.00;0.00;;;;;;;15.27;55.94;102242.78;2079237;28;20053;-74
2022/12/05 01:03:17;;;;;;;0.00;0.00;;;;;;;15.27;55.65;102243.56;2080365;28;20057;-74
2022/12/05 01:04:22;;;;;;;0.00;0.00;;;;;;;15.28;56.03;102245.19;2078055;28;20784;-73
2022/12/05 01:05:24;;;;;;;0.00;0.00;;;;;;;15.27;56.02;102242.78;2079295;28;20049;-74
2022/12/05 01:06:28;;;;;;;0.00;0.00;;;;;;;15.27;55.84;102248.22;2072269;28;20062;-74
2022/12/05 01:07:29;;;;;;;0.00;0.00;;;;;;;15.27;55.99;102245.50;2066808;28;20054;-74
2022/12/05 01:08:33;;;;;;;0.00;0.00;;;;;;;15.27;55.92;102246.28;2073130;28;20050;-75
2022/12/05 01:09:35;;;;;;;0.00;0.00;;;;;;;15.26;55.75;102244.72;2080481;28;20061;-74
2022/12/05 01:10:38;;;;;;;0.00;0.00;;;;;;;15.26;56.00;102241.19;2067316;28;20050;-74
2022/12/05 01:11:40;;;;;;;0.00;0.00;;;;;;;15.26;55.78;102243.91;2062290;28;20512;-74
2022/12/05 01:12:43;;;;;;;0.00;0.00;;;;;;;15.26;55.72;102250.16;2061915;28;20515;-74
2022/12/05 01:13:45;;;;;;;0.00;0.00;;;;;;;15.25;56.00;102245.84;2071931;28;20053;-74
2022/12/05 01:14:50;;;;;;;0.00;0.00;;;;;;;15.27;55.66;102242.78;2075254;28;20061;-74
2022/12/05 01:15:53;;;;;;;0.00;0.00;;;;;;;15.26;55.96;102252.06;2069712;28;20050;-75
2022/12/05 01:16:56;;;;;;;0.00;0.00;;;;;;;15.26;55.86;102250.16;2064008;28;20077;-75
2022/12/05 01:17:58;;;;;;;0.00;0.00;;;;;;;15.25;55.81;102256.72;2068955;28;20050;-74
2022/12/05 01:19:03;;;;;;;0.00;0.00;;;;;;;15.25;55.91;102248.56;2065381;28;20102;-75
2022/12/05 01:20:06;;;;;;;0.00;0.00;;;;;;;15.26;55.84;102247.44;2065319;28;20058;-75
2022/12/05 01:21:09;;;;;;;0.00;0.00;;;;;;;15.25;55.94;102251.28;2063429;28;20802;-74
2022/12/05 01:22:11;;;;;;;0.00;0.00;;;;;;;15.25;56.02;102243.13;2053603;28;20085;-74
2022/12/05 01:23:15;;;;;;;0.00;0.00;;;;;;;15.24;55.92;102244.25;2063922;28;20058;-74
2022/12/05 01:24:18;;;;;;;0.00;0.00;;;;;;;15.25;55.88;102251.28;2061015;28;20522;-74
2022/12/05 01:25:21;;;;;;;0.00;0.00;;;;;;;15.23;55.91;102239.94;2072241;28;20046;-75
2022/12/05 01:26:23;;;;;;;0.00;0.00;;;;;;;15.24;55.88;102244.25;2077450;28;20064;-74
2022/12/05 01:27:26;;;;;;;0.00;0.00;;;;;;;15.25;55.71;102245.84;2062678;28;20054;-75
2022/12/05 01:28:28;;;;;;;0.00;0.00;;;;;;;15.24;55.74;102248.91;2069593;28;20042;-74
2022/12/05 01:29:31;;;;;;;0.00;0.00;;;;;;;15.24;56.03;102249.69;2078146;28;20072;-75
2022/12/05 01:30:38;;;;;;;0.00;0.00;;;;;;;15.23;55.77;102242.66;2075845;28;20045;-74
2022/12/05 01:31:41;;;;;;;0.00;0.00;;;;;;;15.24;55.95;102251.63;2065461;28;20119;-74
2022/12/05 01:32:43;;;;;;;0.00;0.00;;;;;;;15.24;56.02;102249.69;2068210;28;20062;-74
2022/12/05 01:33:47;;;;;;;0.00;0.00;;;;;;;15.23;56.02;102248.09;2069518;28;20053;-73
2022/12/05 01:34:49;;;;;;;0.00;0.00;;;;;;;15.24;55.86;102240.75;2065020;28;20066;-73
2022/12/05 01:35:52;;;;;;;0.00;0.00;;;;;;;15.23;55.75;102253.56;2077313;28;20409;-75
2022/12/05 01:36:54;;;;;;;0.00;0.00;;;;;;;15.24;56.00;102249.69;2073145;28;20058;-73
2022/12/05 01:37:57;;;;;;;0.00;0.00;;;;;;;15.24;55.89;102244.25;2072401;28;20053;-74
2022/12/05 01:39:03;;;;;;;0.00;0.00;;;;;;;15.23;55.96;102241.88;2069100;28;20147;-74
2022/12/05 01:40:07;;;;;;;0.00;0.00;;;;;;;15.23;55.93;102242.66;2064951;28;20137;-73
2022/12/05 01:41:13;;;;;;;0.00;0.00;;;;;;;15.23;55.88;102245.38;2061366;28;20613;-74
2022/12/05 01:42:16;;;;;;;0.00;0.00;;;;;;;15.22;55.87;102241.09;2061309;28;20055;-74
2022/12/05 01:43:25;;;;;;;0.00;0.00;;;;;;;15.20;56.01;102245.25;2063233;28;20050;-74
2022/12/05 01:45:01;;;;;;;0.00;0.00;;;;;;;15.13;56.03;102237.66;2072448;28;20068;-75
2022/12/05 01:46:05;;;;;;;0.00;0.00;;;;;;;15.17;55.99;102237.78;2079274;28;20060;-74
2022/12/05 01:47:08;;;;;;;0.00;0.00;;;;;;;15.18;55.89;102234.72;2080453;28;20571;-74
2022/12/05 01:48:14;;;;;;;0.00;0.00;;;;;;;15.20;56.07;102247.97;2077833;28;20053;-74
2022/12/05 01:49:19;;;;;;;0.00;0.00;;;;;;;15.18;55.92;102240.16;2068588;28;20154;-74
2022/12/05 01:50:22;;;;;;;0.00;0.00;;;;;;;15.19;55.88;102246.41;2069961;28;20054;-74
2022/12/05 01:51:25;;;;;;;0.00;0.00;;;;;;;15.19;55.94;102246.41;2065149;28;20907;-75
2022/12/05 01:52:30;;;;;;;0.00;0.00;;;;;;;15.20;55.86;102239.81;2069300;28;20062;-74
2022/12/05 01:53:34;;;;;;;0.00;0.00;;;;;;;15.19;55.86;102240.97;2069713;28;20498;-73
2022/12/05 01:54:36;;;;;;;0.00;0.00;;;;;;;15.19;55.77;102235.53;2063296;28;20050;-74
2022/12/05 01:55:39;;;;;;;0.00;0.00;;;;;;;15.18;55.86;102233.91;2061422;28;20105;-73
2022/12/05 01:56:44;;;;;;;0.00;0.00;;;;;;;15.20;55.66;102237.09;2072777;28;20527;-73
2022/12/05 01:57:49;;;;;;;0.00;0.00;;;;;;;15.19;55.99;102238.25;2066361;28;20050;-73
2022/12/05 01:58:52;;;;;;;0.00;0.00;;;;;;;15.19;56.17;102239.00;2064129;28;20061;-73
2022/12/05 02:00:00;;;;;;;0.00;0.00;;;;;;;15.20;55.93;102237.91;2076690;28;20337;-73
2022/12/05 02:01:02;;;;;;;0.00;0.00;;;;;;;15.19;55.95;102236.28;2072744;28;20057;-73
2022/12/05 02:02:07;;;;;;;0.00;0.00;;;;;;;15.19;55.76;102230.06;2059432;28;20058;-73
2022/12/05 02:03:16;;;;;;;0.00;0.00;;;;;;;15.18;55.75;102233.91;2061933;28;20058;-73
2022/12/05 02:04:18;;;;;;;0.00;0.00;;;;;;;15.16;55.62;102231.53;2070719;28;20084;-74
2022/12/05 02:05:25;;;;;;;0.00;0.00;;;;;;;15.19;56.17;102230.84;2075823;28;20504;-73
2022/12/05 02:06:27;;;;;;;0.00;0.00;;;;;;;15.17;56.11;102227.69;2074722;28;20046;-74
2022/12/05 02:07:31;;;;;;;0.00;0.00;;;;;;;15.19;56.10;102230.06;2066806;28;20066;-73
2022/12/05 02:08:35;;;;;;;0.00;0.00;;;;;;;15.18;55.81;102229.28;2076814;28;20125;-74
2022/12/05 02:09:37;;;;;;;0.00;0.00;;;;;;;15.18;55.86;102229.28;2075725;28;20057;-74
2022/12/05 02:10:43;;;;;;;0.00;0.00;;;;;;;15.18;55.88;102223.84;2067010;28;20062;-74
2022/12/05 02:11:51;;;;;;;0.00;0.00;;;;;;;15.16;56.04;102228.81;2068540;28;20072;-73
2022/12/05 02:12:55;;;;;;;0.00;0.00;;;;;;;15.15;56.06;102229.94;2072311;28;20528;-73
2022/12/05 02:14:18;;;;;;;0.00;0.00;;;;;;;15.11;55.90;102223.56;2069386;28;20062;-73
2022/12/05 02:15:39;;;;;;;0.00;0.00;;;;;;;15.07;56.11;102217.25;2070531;28;20076;-75
2022/12/05 02:16:50;;;;;;;0.00;0.00;;;;;;;15.10;56.01;102224.72;2080173;28;20057;-76
2022/12/05 02:18:07;;;;;;;0.00;0.00;;;;;;;15.09;55.87;102220.44;2078092;28;20121;-75
2022/12/05 02:19:38;;;;;;;0.00;0.00;;;;;;;15.06;56.39;102221.09;2076710;28;20045;-74
2022/12/05 02:20:53;;;;;;;0.00;0.00;;;;;;;15.08;56.24;102224.25;2074988;28;20061;-76
2022/12/05 02:22:17;;;;;;;0.00;0.00;;;;;;;15.05;56.19;102224.94;2065314;28;20057;-75
2022/12/05 02:23:35;;;;;;;0.00;0.00;;;;;;;15.05;56.09;102224.94;2069057;28;20053;-77
2022/12/05 02:24:54;;;;;;;0.00;0.00;;;;;;;15.02;56.07;102220.16;2074123;28;20256;-74
2022/12/05 02:26:38;;;;;;;0.00;0.00;;;;;;;15.00;56.35;102225.16;2083082;28;20136;-74
2022/12/05 02:28:19;;;;;;;0.00;0.00;;;;;;;14.96;56.22;102219.59;2060688;28;20492;-74
2022/12/05 02:29:46;;;;;;;0.00;0.00;;;;;;;14.98;56.27;102232.88;2076156;28;20045;-74
2022/12/05 02:30:54;;;;;;;0.00;0.00;;;;;;;15.02;56.25;102231.06;2079882;28;20057;-74
2022/12/05 02:32:04;;;;;;;0.00;0.00;;;;;;;15.03;56.17;102230.72;2068865;28;20103;-75
2022/12/05 02:33:16;;;;;;;0.00;0.00;;;;;;;15.03;56.20;102229.94;2065790;28;20062;-75
2022/12/05 02:34:26;;;;;;;0.00;0.00;;;;;;;15.03;56.33;102219.06;2077907;28;20628;-75
2022/12/05 02:35:39;;;;;;;0.00;0.00;;;;;;;15.04;56.29;102234.22;2078037;28;20054;-75
2022/12/05 02:36:45;;;;;;;0.00;0.00;;;;;;;15.04;56.21;102223.34;2075133;28;20520;-74
2022/12/05 02:37:54;;;;;;;0.00;0.00;;;;;;;15.06;55.84;102223.03;2075761;28;20857;-74
2022/12/05 02:39:02;;;;;;;0.00;0.00;;;;;;;15.06;56.27;102234.69;2079671;28;20054;-74
2022/12/05 02:40:12;;;;;;;0.00;0.00;;;;;;;15.05;56.46;102224.16;2071927;28;20065;-75
2022/12/05 02:41:18;;;;;;;0.00;0.00;;;;;;;15.04;56.13;102226.06;2072072;28;20054;-72
2022/12/05 02:42:29;;;;;;;0.00;0.00;;;;;;;15.05;55.99;102219.50;2059075;28;20050;-73
2022/12/05 02:43:36;;;;;;;0.00;0.00;;;;;;;15.07;56.21;102232.75;2061683;28;20513;-73
2022/12/05 02:44:45;;;;;;;0.00;0.00;;;;;;;15.06;56.29;102231.97;2064991;28;20069;-74
2022/12/05 02:45:51;;;;;;;0.00;0.00;;;;;;;15.05;56.33;102227.66;2079526;28;20053;-73
2022/12/05 02:46:56;;;;;;;0.00;0.00;;;;;;;15.05;56.45;102230.38;2079076;28;20530;-73
2022/12/05 02:47:59;;;;;;;0.00;0.00;;;;;;;15.07;56.26;102239.00;2079570;28;20623;-73
2022/12/05 02:49:05;;;;;;;0.00;0.00;;;;;;;15.08;56.22;102231.63;2075573;28;20069;-73
2022/12/05 02:50:10;;;;;;;0.00;0.00;;;;;;;15.08;56.01;102235.13;2074577;28;20057;-74
2022/12/05 02:51:17;;;;;;;0.00;0.00;;;;;;;15.09;56.04;102241.38;2073679;28;20054;-73
2022/12/05 02:52:21;;;;;;;0.00;0.00;;;;;;;15.08;56.34;102234.38;2074672;28;20057;-73
2022/12/05 02:53:26;;;;;;;0.00;0.00;;;;;;;15.09;55.98;102239.47;2074419;28;20080;-73
2022/12/05 02:54:32;;;;;;;0.00;0.00;;;;;;;15.09;56.31;102242.19;2072271;28;20057;-74
2022/12/05 02:55:35;;;;;;;0.00;0.00;;;;;;;15.09;56.42;102242.19;2071628;28;20057;-74
2022/12/05 02:56:39;;;;;;;0.00;0.00;;;;;;;15.09;56.24;102242.19;2077006;28;20054;-74
2022/12/05 02:57:45;;;;;;;0.00;0.00;;;;;;;15.11;56.00;102241.84;2072311;28;20058;-73
2022/12/05 02:58:51;;;;;;;0.00;0.00;;;;;;;15.10;56.10;102249.19;2069215;28;20120;-74
2022/12/05 02:59:55;;;;;;;0.00;0.00;;;;;;;15.10;56.35;102237.53;2071111;28;20069;-74
2022/12/05 03:00:58;;;;;;;0.00;0.00;;;;;;;15.10;56.24;102248.41;2069394;28;20062;-74
2022/12/05 03:02:02;;;;;;;0.00;0.00;;;;;;;15.09;55.91;102236.75;2076915;28;20568;-73
2022/12/05 03:03:12;;;;;;;0.00;0.00;;;;;;;15.07;56.18;102238.19;2074782;28;20080;-74
2022/12/05 03:04:16;;;;;;;0.00;0.00;;;;;;;15.09;56.04;102241.38;2070383;28;20046;-74
2022/12/05 03:05:27;;;;;;;0.00;0.00;;;;;;;15.10;56.24;102242.97;2068679;28;20062;-73
2022/12/05 03:06:33;;;;;;;0.00;0.00;;;;;;;15.10;56.23;102245.69;2073347;28;20936;-73
2022/12/05 03:07:38;;;;;;;0.00;0.00;;;;;;;15.09;56.14;102241.38;2072690;28;20089;-73
2022/12/05 03:08:46;;;;;;;0.00;0.00;;;;;;;15.10;56.32;102248.41;2078687;28;20065;-74
2022/12/05 03:09:53;;;;;;;0.00;0.00;;;;;;;15.09;56.07;102241.38;2075783;28;20793;-74
2022/12/05 03:10:57;;;;;;;0.00;0.00;;;;;;;15.09;55.92;102244.91;2073586;28;20413;-74
2022/12/05 03:12:05;;;;;;;0.00;0.00;;;;;;;15.09;56.13;102244.91;2079240;28;20060;-74
2022/12/05 03:13:14;;;;;;;0.00;0.00;;;;;;;15.09;55.89;102238.66;2070615;28;20121;-74
2022/12/05 03:14:20;;;;;;;0.00;0.00;;;;;;;15.09;56.09;102241.38;2073129;28;20069;-74
2022/12/05 03:15:28;;;;;;;0.00;0.00;;;;;;;15.08;56.03;102239.81;2072666;28;20111;-73
2022/12/05 03:16:35;;;;;;;0.00;0.00;;;;;;;15.08;56.17;102237.84;2066625;28;20521;-74
2022/12/05 03:17:44;;;;;;;0.00;0.00;;;;;;;15.08;55.91;102240.56;2066917;28;20517;-75
2022/12/05 03:18:49;;;;;;;0.00;0.00;;;;;;;15.07;55.88;102236.28;2065017;28;20058;-74
2022/12/05 03:19:57;;;;;;;0.00;0.00;;;;;;;15.08;56.09;102232.41;2066389;28;20107;-74
2022/12/05 03:21:03;;;;;;;0.00;0.00;;;;;;;15.07;56.03;102233.56;2069039;28;20058;-74
2022/12/05 03:22:08;;;;;;;0.00;0.00;;;;;;;15.08;56.10;102237.09;2067909;28;20045;-73
2022/12/05 03:23:15;;;;;;;0.00;0.00;;;;;;;15.08;55.66;102239.81;2078695;28;20057;-74
2022/12/05 03:24:18;;;;;;;0.00;0.00;;;;;;;15.07;56.01;102239.00;2075877;28;20069;-74
2022/12/05 03:25:24;;;;;;;0.00;0.00;;;;;;;15.07;56.02;102233.56;2064675;28;20066;-74
2022/12/05 03:26:37;;;;;;;0.00;0.00;;;;;;;15.06;56.02;102233.91;2071867;28;20100;-73
2022/12/05 03:27:46;;;;;;;0.00;0.00;;;;;;;15.06;55.91;102236.63;2076796;28;20065;-73
2022/12/05 03:28:59;;;;;;;0.00;0.00;;;;;;;15.05;56.12;102241.25;2075302;28;20057;-73
2022/12/05 03:30:06;;;;;;;0.00;0.00;;;;;;;15.06;56.11;102244.78;2073027;28;20108;-73
2022/12/05 03:31:14;;;;;;;0.00;0.00;;;;;;;15.04;56.21;102239.69;2071440;28;20053;-73
2022/12/05 03:32:23;;;;;;;0.00;0.00;;;;;;;15.05;56.23;102238.53;2073508;28;20106;-73
2022/12/05 03:33:31;;;;;;;0.00;0.00;;;;;;;15.06;56.16;102242.88;2077008;28;20437;-73
2022/12/05 03:34:44;;;;;;;0.00;0.00;;;;;;;15.01;56.06;102235.69;2065839;28;20039;-73
2022/12/05 03:36:01;;;;;;;0.00;0.00;;;;;;;15.02;56.25;102241.94;2068860;28;20065;-73
2022/12/05 03:37:07;;;;;;;0.00;0.00;;;;;;;15.04;56.40;102239.69;2071705;28;20073;-73
2022/12/05 03:38:13;;;;;;;0.00;0.00;;;;;;;15.05;55.93;102243.19;2076834;28;20062;-74
2022/12/05 03:39:22;;;;;;;0.00;0.00;;;;;;;15.03;56.26;102241.59;2073772;28;20591;-74
2022/12/05 03:40:33;;;;;;;0.00;0.00;;;;;;;15.02;55.92;102250.09;2072568;28;20054;-74
2022/12/05 03:41:40;;;;;;;0.00;0.00;;;;;;;15.02;56.44;102236.50;2079500;28;20057;-74
2022/12/05 03:42:50;;;;;;;0.00;0.00;;;;;;;15.03;56.12;102240.81;2074092;28;20057;-74
2022/12/05 03:43:57;;;;;;;0.00;0.00;;;;;;;15.02;56.38;102242.72;2065666;28;20050;-74
2022/12/05 03:45:02;;;;;;;0.00;0.00;;;;;;;15.04;56.21;102245.13;2068564;28;20062;-74
2022/12/05 03:46:08;;;;;;;0.00;0.00;;;;;;;15.05;56.17;102235.03;2076684;28;20064;-74
2022/12/05 03:47:17;;;;;;;0.00;0.00;;;;;;;15.04;56.41;102239.69;2077935;28;20061;-74
2022/12/05 03:48:27;;;;;;;0.00;0.00;;;;;;;15.03;56.04;102240.81;2065204;28;20221;-74
2022/12/05 03:49:31;;;;;;;;;;;;;;;14.84;56.32;102235.09;2071698;28;20050;-74
2022/12/05 03:50:39;;;;;;;0.00;0.00;;;;;;;14.96;56.44;102235.13;2068755;28;19925;-74
2022/12/05 03:51:48;;;;;;;0.00;0.00;;;;;;;14.98;56.32;102235.59;2072018;28;20054;-74
2022/12/05 03:52:54;;;;;;;0.00;0.00;;;;;;;15.00;56.29;102241.47;2071397;28;20062;-74
2022/12/05 03:54:23;;;;;;;0.00;0.00;;;;;;;14.97;56.08;102245.66;2074334;28;20103;-74
2022/12/05 03:55:30;;;;;;;0.00;0.00;;;;;;;15.00;56.23;102244.19;2078056;28;20524;-73
2022/12/05 03:56:38;;;;;;;0.00;0.00;;;;;;;15.01;56.42;102245.78;2072087;28;20041;-74
2022/12/05 03:57:46;;;;;;;0.00;0.00;;;;;;;15.00;56.04;102244.19;2074739;28;20085;-74
2022/12/05 03:58:56;;;;;;;0.00;0.00;;;;;;;14.98;56.35;102246.47;2063373;28;20502;-74
2022/12/05 04:00:03;;;;;;;0.00;0.00;;;;;;;14.99;56.31;102245.31;2067075;28;20053;-73
2022/12/05 04:01:10;;;;;;;0.00;0.00;;;;;;;15.00;56.38;102241.47;2074584;28;20097;-73
2022/12/05 04:02:20;;;;;;;0.00;0.00;;;;;;;15.00;56.58;102238.75;2076772;28;20054;-74
2022/12/05 04:03:37;;;;;;;0.00;0.00;;;;;;;14.99;56.38;102235.25;2066051;28;20540;-73
2022/12/05 04:04:47;;;;;;;0.00;0.00;;;;;;;14.97;56.72;102234.78;2072126;28;20046;-73
2022/12/05 04:05:52;;;;;;;;;;;;;;;14.80;56.65;102239.59;2067255;28;20438;-72
2022/12/05 04:06:56;;;;;;;0.00;0.00;;;;;;;14.91;56.22;102238.03;2073067;28;20001;-74
2022/12/05 04:08:03;;;;;;;0.00;0.00;;;;;;;14.95;56.16;102245.19;2077439;28;20069;-73
2022/12/05 04:09:10;;;;;;;0.00;0.00;;;;;;;14.95;56.12;102239.75;2073463;28;20054;-74
2022/12/05 04:10:22;;;;;;;0.00;0.00;;;;;;;14.96;56.24;102237.84;2070950;28;20050;-73
2022/12/05 04:11:29;;;;;;;0.00;0.00;;;;;;;14.98;56.37;102249.19;2076415;28;20053;-73
2022/12/05 04:12:34;;;;;;;0.00;0.00;;;;;;;14.99;56.50;102245.31;2067219;28;20054;-73
2022/12/05 04:13:42;;;;;;;0.00;0.00;;;;;;;14.99;56.17;102243.41;2068216;28;20057;-73
2022/12/05 04:14:48;;;;;;;0.00;0.00;;;;;;;14.99;56.42;102242.59;2071478;28;20081;-73
2022/12/05 04:17:25;;;;;;;0.00;0.00;;;;;;;14.96;56.17;102246.81;2064568;28;20050;-73
2022/12/05 04:18:28;;;;;;;0.00;0.00;;;;;;;14.97;56.36;102250.28;2060721;28;20105;-73
2022/12/05 04:22:15;;;;;;;0.00;0.00;;;;;;;14.95;56.39;102253.34;2066705;28;20054;-73
2022/12/05 04:23:18;;;;;;;0.00;0.00;;;;;;;14.98;56.44;102251.91;2073140;28;20108;-73
2022/12/05 04:25:57;;;;;;;0.00;0.00;;;;;;;14.95;56.22;102252.56;2069309;28;20064;-73
2022/12/05 04:27:09;;;;;;;0.00;0.00;;;;;;;14.94;56.39;102257.22;2071139;28;20081;-74
2022/12/05 04:28:26;;;;;;;0.00;0.00;;;;;;;14.94;56.27;102256.41;2077485;28;20053;-74
2022/12/05 04:29:34;;;;;;;0.00;0.00;;;;;;;14.95;56.27;102245.19;2062909;28;20499;-74
2022/12/05 04:30:42;;;;;;;0.00;0.00;;;;;;;14.97;56.48;102248.38;2062368;28;20069;-74
2022/12/05 04:31:50;;;;;;;0.00;0.00;;;;;;;14.96;56.09;102252.25;2066813;28;20101;-74
2022/12/05 04:33:02;;;;;;;0.00;0.00;;;;;;;14.95;56.44;102247.91;2078924;28;20053;-73
2022/12/05 04:34:07;;;;;;;0.00;0.00;;;;;;;14.97;56.09;102250.28;2074379;28;20517;-74
2022/12/05 04:35:13;;;;;;;0.00;0.00;;;;;;;14.97;56.36;102247.56;2074139;28;20073;-73
2022/12/05 04:36:21;;;;;;;0.00;0.00;;;;;;;14.97;56.48;102253.00;2076798;28;20049;-73
2022/12/05 04:37:26;;;;;;;0.00;0.00;;;;;;;14.98;56.34;102251.91;2071146;28;20053;-73
2022/12/05 04:38:36;;;;;;;0.00;0.00;;;;;;;14.98;56.10;102249.97;2063063;28;20580;-73
2022/12/05 04:39:45;;;;;;;0.00;0.00;;;;;;;14.98;56.32;102246.47;2075700;28;20057;-73
2022/12/05 04:40:53;;;;;;;0.00;0.00;;;;;;;14.97;56.29;102240.22;2073986;28;20041;-74
2022/12/05 04:41:59;;;;;;;0.00;0.00;;;;;;;14.98;56.29;102246.47;2079400;28;20045;-73
2022/12/05 04:43:07;;;;;;;0.00;0.00;;;;;;;14.98;56.39;102244.53;2068220;28;20445;-73
2022/12/05 04:44:19;;;;;;;0.00;0.00;;;;;;;14.98;56.06;102243.75;2069462;28;20045;-74
2022/12/05 04:45:25;;;;;;;0.00;0.00;;;;;;;14.99;56.45;102248.03;2080975;28;20064;-74
2022/12/05 04:46:27;;;;;;;0.00;0.00;;;;;;;14.98;56.49;102247.25;2077241;28;20056;-75
2022/12/05 04:47:34;;;;;;;0.00;0.00;;;;;;;15.00;56.15;102255.06;2072647;28;20104;-74
2022/12/05 04:48:42;;;;;;;0.00;0.00;;;;;;;14.98;56.08;102246.47;2066084;28;20057;-74
2022/12/05 04:49:46;;;;;;;0.00;0.00;;;;;;;14.99;56.38;102248.03;2067327;28;20058;-74
2022/12/05 04:50:55;;;;;;;;;;;;;;;14.78;56.64;102242.66;2074096;28;20049;-74
2022/12/05 04:52:10;;;;;;;0.00;0.00;;;;;;;14.85;56.58;102244.81;2063917;28;19921;-74
2022/12/05 04:53:13;;;;;;;0.00;0.00;;;;;;;14.92;56.22;102245.09;2062455;28;20145;-74
2022/12/05 04:54:21;;;;;;;0.00;0.00;;;;;;;14.94;56.46;102245.53;2071312;28;20053;-74
2022/12/05 04:55:24;;;;;;;0.00;0.00;;;;;;;14.95;56.25;102247.13;2073682;28;20050;-74
2022/12/05 04:56:33;;;;;;;0.00;0.00;;;;;;;14.97;56.14;102250.28;2072462;28;20121;-74
2022/12/05 04:57:40;;;;;;;0.00;0.00;;;;;;;14.96;56.29;102243.28;2068235;28;20054;-74
2022/12/05 04:58:43;;;;;;;0.00;0.00;;;;;;;14.95;56.38;102244.41;2079992;28;20050;-75
2022/12/05 04:59:46;;;;;;;0.00;0.00;;;;;;;14.96;56.30;102249.53;2066253;28;20054;-75
2022/12/05 05:00:54;;;;;;;0.00;0.00;;;;;;;14.97;56.08;102251.09;2062370;28;20046;-74
2022/12/05 05:02:00;;;;;;;0.00;0.00;;;;;;;14.97;56.40;102250.28;2073250;28;20065;-73
2022/12/05 05:03:08;;;;;;;0.00;0.00;;;;;;;14.97;56.33;102244.84;2067334;28;20053;-74
2022/12/05 05:04:16;;;;;;;0.00;0.00;;;;;;;14.97;56.43;102244.84;2063859;28;20120;-74
2022/12/05 05:05:20;;;;;;;0.00;0.00;;;;;;;14.97;56.12;102247.56;2076608;28;20057;-74
2022/12/05 05:06:22;;;;;;;0.00;0.00;;;;;;;14.96;56.39;102244.09;2073886;28;20061;-74
2022/12/05 05:07:26;;;;;;;0.00;0.00;;;;;;;14.97;56.29;102250.28;2072922;28;20065;-73
2022/12/05 05:08:28;;;;;;;0.00;0.00;;;;;;;14.99;56.09;102248.03;2077371;28;20053;-74
2022/12/05 05:09:31;;;;;;;0.00;0.00;;;;;;;14.98;56.11;102246.47;2072726;28;20084;-74
2022/12/05 05:10:38;;;;;;;0.00;0.00;;;;;;;14.98;56.24;102249.19;2075860;28;20053;-73
2022/12/05 05:11:41;;;;;;;0.00;0.00;;;;;;;14.97;56.44;102248.38;2074576;28;20653;-73
2022/12/05 05:12:43;;;;;;;0.00;0.00;;;;;;;14.97;56.09;102251.09;2076909;28;20065;-73
2022/12/05 05:13:46;;;;;;;0.00;0.00;;;;;;;14.99;56.34;102253.47;2073870;28;20058;-73
2022/12/05 05:14:47;;;;;;;0.00;0.00;;;;;;;14.99;56.29;102250.75;2080963;28;20089;-73